createdAt,value
2019-01-21T00:00:08.199Z,-919.32
2019-01-21T00:01:08.342Z,-919.90
2019-01-21T00:02:08.534Z,-918.87
2019-01-21T00:03:14.414Z,-920.59
2019-01-21T00:04:09.979Z,-920.53
2019-01-21T00:05:09.061Z,-923.31
2019-01-21T00:06:09.167Z,-919.57
2019-01-21T00:07:09.318Z,-920.98
2019-01-21T00:08:09.492Z,-915.92
2019-01-21T00:09:09.682Z,-912.70
2019-01-21T00:10:09.826Z,-920.87
2019-01-21T00:11:10.012Z,-916.28
2019-01-21T00:12:10.205Z,-914.73
2019-01-21T00:13:10.328Z,-917.40
2019-01-21T00:14:10.488Z,-920.59
2019-01-21T00:15:10.641Z,-919.51
2019-01-21T00:16:10.825Z,-926.25
2019-01-21T00:17:10.959Z,-923.18
2019-01-21T00:18:11.143Z,-922.41
2019-01-21T00:19:11.534Z,-921.06
2019-01-21T00:20:11.496Z,-921.63
2019-01-21T00:21:11.614Z,-918.68
2019-01-21T00:22:11.772Z,-916.70
2019-01-21T00:23:11.953Z,-915.27
2019-01-21T00:24:12.123Z,-918.83
2019-01-21T00:25:12.263Z,-923.17
2019-01-21T00:26:12.421Z,-917.78
2019-01-21T00:27:12.580Z,-918.78
2019-01-21T00:28:12.792Z,-915.83
2019-01-21T00:29:13.029Z,-918.50
2019-01-21T00:30:13.075Z,-913.69
2019-01-21T00:31:13.240Z,-910.32
2019-01-21T00:32:13.400Z,-913.54
2019-01-21T00:33:13.579Z,-914.15
2019-01-21T00:34:13.732Z,-917.83
2019-01-21T00:35:13.886Z,-912.15
2019-01-21T00:36:14.062Z,-915.23
2019-01-21T00:37:14.307Z,-913.82
2019-01-21T00:38:14.396Z,-914.34
2019-01-21T00:39:14.533Z,-917.60
2019-01-21T00:40:14.700Z,-912.63
2019-01-21T00:41:14.876Z,-910.42
2019-01-21T00:42:15.009Z,-910.99
2019-01-21T00:43:15.234Z,-912.87
2019-01-21T00:44:15.368Z,-908.32
2019-01-21T00:45:15.588Z,-909.58
2019-01-21T00:46:15.669Z,-905.64
2019-01-21T00:47:15.819Z,-899.97
2019-01-21T00:48:15.987Z,-903.12
2019-01-21T00:49:16.173Z,-900.92
2019-01-21T00:50:16.705Z,-895.85
2019-01-21T00:51:16.484Z,-897.78
2019-01-21T00:52:16.627Z,-902.52
2019-01-21T00:53:16.838Z,-898.73
2019-01-21T00:54:16.976Z,-894.33
2019-01-21T00:55:17.098Z,-889.40
2019-01-21T00:56:17.274Z,-896.09
2019-01-21T00:57:17.421Z,-895.38
2019-01-21T00:58:17.603Z,-893.55
2019-01-21T00:59:17.779Z,-892.63
2019-01-21T01:00:17.899Z,-899.94
2019-01-21T01:01:18.114Z,-895.47
2019-01-21T01:02:18.317Z,-894.33
2019-01-21T01:03:18.406Z,-900.26
2019-01-21T01:04:18.610Z,-891.92
2019-01-21T01:05:18.702Z,-894.80
2019-01-21T01:06:18.894Z,-944.58
2019-01-21T01:07:19.049Z,-945.26
2019-01-21T01:08:19.200Z,-947.40
2019-01-21T01:09:19.404Z,-949.60
2019-01-21T01:10:19.650Z,-938.73
2019-01-21T01:11:19.718Z,-944.87
2019-01-21T01:12:19.855Z,-943.46
2019-01-21T01:13:20.014Z,-942.63
2019-01-21T01:14:20.195Z,-941.52
2019-01-21T01:15:20.334Z,-943.94
2019-01-21T01:16:20.518Z,-947.23
2019-01-21T01:17:20.683Z,-942.20
2019-01-21T01:18:20.949Z,-946.19
2019-01-21T01:19:21.009Z,-945.40
2019-01-21T01:20:21.197Z,-944.50
2019-01-21T01:21:21.339Z,-943.57
2019-01-21T01:22:21.496Z,-943.12
2019-01-21T01:23:21.655Z,-942.72
2019-01-21T01:24:21.848Z,-941.83
2019-01-21T01:25:22.006Z,-941.22
2019-01-21T01:26:22.223Z,-940.44
2019-01-21T01:27:22.270Z,-940.48
2019-01-21T01:28:22.455Z,-942.12
2019-01-21T01:29:22.636Z,-942.09
2019-01-21T01:30:22.813Z,-942.90
2019-01-21T01:31:22.979Z,-937.45
2019-01-21T01:32:23.118Z,-942.90
2019-01-21T01:33:23.249Z,-940.68
2019-01-21T01:34:23.465Z,-938.86
2019-01-21T01:35:23.587Z,-940.73
2019-01-21T01:36:23.769Z,-940.42
2019-01-21T01:37:23.906Z,-936.90
2019-01-21T01:38:24.065Z,-941.01
2019-01-21T01:39:24.252Z,-945.11
2019-01-21T01:40:24.412Z,-886.50
2019-01-21T01:41:24.588Z,-884.53
2019-01-21T01:42:24.766Z,-886.03
2019-01-21T01:43:25.014Z,-887.20
2019-01-21T01:44:25.080Z,-892.34
2019-01-21T01:45:25.248Z,-885.35
2019-01-21T01:46:25.401Z,-890.02
2019-01-21T01:47:25.540Z,-890.66
2019-01-21T01:48:25.700Z,-890.48
2019-01-21T01:49:25.888Z,-889.71
2019-01-21T01:50:26.034Z,-891.17
2019-01-21T01:51:26.381Z,-886.03
2019-01-21T01:52:26.346Z,-889.76
2019-01-21T01:53:26.507Z,-888.11
2019-01-21T01:54:26.676Z,-889.38
2019-01-21T01:55:26.844Z,-895.54
2019-01-21T01:56:27.241Z,-888.60
2019-01-21T01:57:27.150Z,-891.16
2019-01-21T01:58:27.320Z,-887.83
2019-01-21T01:59:27.545Z,-886.02
2019-01-21T02:00:27.624Z,-887.10
2019-01-21T02:01:27.807Z,-890.72
2019-01-21T02:02:27.971Z,-892.00
2019-01-21T02:03:28.157Z,-890.50
2019-01-21T02:04:28.311Z,-888.23
2019-01-21T02:05:28.480Z,-891.29
2019-01-21T02:06:28.637Z,-887.92
2019-01-21T02:07:28.836Z,-889.86
2019-01-21T02:08:28.918Z,-887.61
2019-01-21T02:09:29.099Z,-893.09
2019-01-21T02:10:29.271Z,-893.05
2019-01-21T02:11:29.430Z,-891.68
2019-01-21T02:12:29.565Z,-888.47
2019-01-21T02:13:29.741Z,-889.52
2019-01-21T02:14:29.937Z,-891.91
2019-01-21T02:15:30.137Z,-892.61
2019-01-21T02:16:30.301Z,-889.52
2019-01-21T02:17:30.387Z,-886.19
2019-01-21T02:18:30.558Z,-892.63
2019-01-21T02:19:30.770Z,-893.37
2019-01-21T02:20:30.904Z,-888.78
2019-01-21T02:21:31.068Z,-891.28
2019-01-21T02:22:31.245Z,-896.18
2019-01-21T02:23:31.398Z,-892.56
2019-01-21T02:24:31.745Z,-896.34
2019-01-21T02:25:31.742Z,-893.41
2019-01-21T02:26:31.903Z,-898.01
2019-01-21T02:27:32.086Z,-895.24
2019-01-21T02:28:32.206Z,-897.03
2019-01-21T02:29:32.417Z,-897.42
2019-01-21T02:30:32.570Z,-896.81
2019-01-21T02:31:32.723Z,-891.54
2019-01-21T02:32:33.014Z,-896.44
2019-01-21T02:33:33.030Z,-891.21
2019-01-21T02:34:33.248Z,-896.40
2019-01-21T02:35:33.389Z,-893.65
2019-01-21T02:36:33.529Z,-899.11
2019-01-21T02:37:33.725Z,-895.15
2019-01-21T02:38:33.891Z,-895.11
2019-01-21T02:39:34.056Z,-893.24
2019-01-21T02:40:34.219Z,-895.53
2019-01-21T02:41:34.329Z,-895.36
2019-01-21T02:42:34.526Z,-895.99
2019-01-21T02:43:34.723Z,-898.27
2019-01-21T02:44:34.845Z,-894.43
2019-01-21T02:45:34.965Z,-898.13
2019-01-21T02:46:35.131Z,-896.17
2019-01-21T02:47:35.322Z,-896.66
2019-01-21T02:48:35.561Z,-896.53
2019-01-21T02:49:35.663Z,-899.60
2019-01-21T02:50:35.778Z,-902.58
2019-01-21T02:51:35.942Z,-901.02
2019-01-21T02:52:36.136Z,-898.63
2019-01-21T02:53:36.282Z,-898.82
2019-01-21T02:54:36.489Z,-900.46
2019-01-21T02:55:36.594Z,-902.42
2019-01-21T02:56:36.777Z,-900.93
2019-01-21T02:57:37.064Z,-898.69
2019-01-21T02:58:37.107Z,-896.08
2019-01-21T02:59:37.276Z,-895.47
2019-01-21T03:00:37.407Z,-900.98
2019-01-21T03:01:37.565Z,-895.01
2019-01-21T03:02:37.733Z,-898.68
2019-01-21T03:03:37.904Z,-903.11
2019-01-21T03:04:38.071Z,-899.68
2019-01-21T03:05:38.353Z,-895.85
2019-01-21T03:06:38.353Z,-898.76
2019-01-21T03:07:38.548Z,-892.91
2019-01-21T03:08:38.721Z,-897.64
2019-01-21T03:09:38.896Z,-893.92
2019-01-21T03:10:39.032Z,-894.62
2019-01-21T03:11:39.196Z,-893.36
2019-01-21T03:12:39.374Z,-895.89
2019-01-21T03:13:39.554Z,-896.51
2019-01-21T03:14:39.681Z,-896.88
2019-01-21T03:15:39.826Z,-890.21
2019-01-21T03:16:40.024Z,-892.16
2019-01-21T03:17:40.172Z,-892.91
2019-01-21T03:18:40.305Z,-896.00
2019-01-21T03:19:40.476Z,-891.26
2019-01-21T03:20:40.668Z,-896.17
2019-01-21T03:21:40.924Z,-899.09
2019-01-21T03:22:40.971Z,-892.67
2019-01-21T03:23:41.125Z,-895.10
2019-01-21T03:24:41.278Z,-895.84
2019-01-21T03:25:41.507Z,-893.48
2019-01-21T03:26:41.643Z,-901.30
2019-01-21T03:27:41.821Z,-898.00
2019-01-21T03:28:41.958Z,-900.96
2019-01-21T03:29:42.149Z,-901.00
2019-01-21T03:30:42.456Z,-902.99
2019-01-21T03:31:42.472Z,-905.54
2019-01-21T03:32:42.882Z,-903.60
2019-01-21T03:33:42.791Z,-905.38
2019-01-21T03:34:42.968Z,-905.32
2019-01-21T03:35:43.161Z,-898.62
2019-01-21T03:36:43.273Z,-905.50
2019-01-21T03:37:43.470Z,-901.62
2019-01-21T03:38:43.764Z,-899.76
2019-01-21T03:39:43.768Z,-904.49
2019-01-21T03:40:43.925Z,-899.93
2019-01-21T03:41:44.095Z,-896.35
2019-01-21T03:42:44.283Z,-897.11
2019-01-21T03:43:44.422Z,-896.49
2019-01-21T03:44:44.591Z,-894.78
2019-01-21T03:45:44.778Z,-897.41
2019-01-21T03:46:44.985Z,-899.60
2019-01-21T03:47:45.134Z,-900.61
2019-01-21T03:48:45.243Z,-903.46
2019-01-21T03:49:45.395Z,-906.08
2019-01-21T03:50:45.575Z,-908.39
2019-01-21T03:51:45.728Z,-906.18
2019-01-21T03:52:45.892Z,-906.23
2019-01-21T03:53:46.046Z,-909.49
2019-01-21T03:54:46.453Z,-913.20
2019-01-21T03:55:46.362Z,-908.22
2019-01-21T03:56:46.547Z,-915.21
2019-01-21T03:57:46.689Z,-909.23
2019-01-21T03:58:46.804Z,-907.62
2019-01-21T03:59:46.983Z,-911.80
2019-01-21T04:00:47.181Z,-911.80
2019-01-21T04:01:47.332Z,-911.66
2019-01-21T04:02:47.521Z,-913.98
2019-01-21T04:03:47.661Z,-917.60
2019-01-21T04:04:47.794Z,-914.91
2019-01-21T04:05:47.962Z,-916.72
2019-01-21T04:06:48.115Z,-911.72
2019-01-21T04:07:48.306Z,-907.55
2019-01-21T04:08:48.437Z,-907.60
2019-01-21T04:09:48.574Z,-911.34
2019-01-21T04:10:48.783Z,-910.83
2019-01-21T04:11:49.051Z,-909.85
2019-01-21T04:12:49.114Z,-915.47
2019-01-21T04:13:49.257Z,-915.08
2019-01-21T04:14:49.402Z,-911.99
2019-01-21T04:15:49.593Z,-912.99
2019-01-21T04:16:52.767Z,-912.05
2019-01-21T04:17:49.937Z,-911.25
2019-01-21T04:18:50.058Z,-916.01
2019-01-21T04:19:50.311Z,-914.10
2019-01-21T04:20:50.393Z,-914.24
2019-01-21T04:21:50.548Z,-914.30
2019-01-21T04:22:50.722Z,-912.55
2019-01-21T04:23:50.870Z,-908.56
2019-01-21T04:24:51.028Z,-906.97
2019-01-21T04:25:51.189Z,-909.78
2019-01-21T04:26:51.348Z,-911.78
2019-01-21T04:27:51.580Z,-916.78
2019-01-21T04:28:51.655Z,-916.93
2019-01-21T04:29:51.820Z,-913.48
2019-01-21T04:30:51.985Z,-912.25
2019-01-21T04:31:52.126Z,-911.88
2019-01-21T04:32:52.343Z,-911.13
2019-01-21T04:33:52.464Z,-919.52
2019-01-21T04:34:52.650Z,-920.05
2019-01-21T04:35:52.862Z,-915.49
2019-01-21T04:36:52.914Z,-912.54
2019-01-21T04:37:53.109Z,-914.22
2019-01-21T04:38:53.275Z,-913.54
2019-01-21T04:39:53.506Z,-902.57
2019-01-21T04:40:53.626Z,-911.12
2019-01-21T04:41:53.760Z,-921.59
2019-01-21T04:42:53.939Z,-923.62
2019-01-21T04:43:54.104Z,-919.82
2019-01-21T04:44:54.302Z,-922.15
2019-01-21T04:45:54.421Z,-920.65
2019-01-21T04:46:54.563Z,-919.69
2019-01-21T04:47:54.709Z,-918.04
2019-01-21T04:48:54.897Z,-917.35
2019-01-21T04:49:55.075Z,-920.00
2019-01-21T04:50:55.228Z,-920.64
2019-01-21T04:51:55.373Z,-918.19
2019-01-21T04:52:55.677Z,-919.60
2019-01-21T04:53:55.700Z,-919.48
2019-01-21T04:54:55.890Z,-921.86
2019-01-21T04:55:56.049Z,-913.33
2019-01-21T04:56:56.209Z,-917.60
2019-01-21T04:57:56.354Z,-914.74
2019-01-21T04:58:56.547Z,-918.45
2019-01-21T04:59:56.701Z,-920.19
2019-01-21T05:00:56.953Z,-917.02
2019-01-21T05:01:56.993Z,-920.21
2019-01-21T05:02:57.167Z,-909.80
2019-01-21T05:03:57.339Z,-913.42
2019-01-21T05:04:57.494Z,-902.90
2019-01-21T05:05:57.662Z,-912.90
2019-01-21T05:06:57.809Z,-917.03
2019-01-21T05:07:57.970Z,-916.56
2019-01-21T05:08:58.199Z,-918.95
2019-01-21T05:09:58.301Z,-917.68
2019-01-21T05:10:58.443Z,-914.94
2019-01-21T05:11:58.830Z,-917.70
2019-01-21T05:12:58.779Z,-913.02
2019-01-21T05:13:58.951Z,-917.11
2019-01-21T05:14:59.108Z,-906.97
2019-01-21T05:15:59.263Z,-899.26
2019-01-21T05:16:59.458Z,-913.42
2019-01-21T05:17:59.570Z,-910.24
2019-01-21T05:18:59.754Z,-909.64
2019-01-21T05:19:59.920Z,-910.30
2019-01-21T05:21:00.073Z,-911.59
2019-01-21T05:22:00.220Z,-916.39
2019-01-21T05:23:00.366Z,-913.19
2019-01-21T05:24:00.563Z,-912.08
2019-01-21T05:25:00.754Z,-915.11
2019-01-21T05:26:00.957Z,-917.17
2019-01-21T05:27:01.013Z,-910.17
2019-01-21T05:28:01.182Z,-904.89
2019-01-21T05:29:01.378Z,-903.19
2019-01-21T05:30:01.562Z,-911.94
2019-01-21T05:31:01.705Z,-901.01
2019-01-21T05:32:01.844Z,-904.90
2019-01-21T05:33:01.997Z,-911.01
2019-01-21T05:34:02.376Z,-907.02
2019-01-21T05:35:02.354Z,-883.15
2019-01-21T05:36:02.514Z,-900.56
2019-01-21T05:37:02.657Z,-909.29
2019-01-21T05:38:02.800Z,-910.12
2019-01-21T05:39:02.996Z,-905.26
2019-01-21T05:40:03.146Z,-910.28
2019-01-21T05:41:03.329Z,-909.65
2019-01-21T05:42:03.512Z,-912.98
2019-01-21T05:43:03.603Z,-910.96
2019-01-21T05:44:03.777Z,-909.41
2019-01-21T05:45:03.933Z,-908.22
2019-01-21T05:46:04.118Z,-904.26
2019-01-21T05:47:04.255Z,-908.86
2019-01-21T05:48:04.410Z,-907.43
2019-01-21T05:49:04.594Z,-906.51
2019-01-21T05:50:04.783Z,-909.49
2019-01-21T05:51:04.899Z,-904.97
2019-01-21T05:52:05.043Z,-906.46
2019-01-21T05:53:05.202Z,-909.15
2019-01-21T05:54:05.388Z,-906.98
2019-01-21T05:55:05.510Z,-909.93
2019-01-21T05:56:05.686Z,-912.54
2019-01-21T05:57:05.871Z,-908.59
2019-01-21T05:58:06.070Z,-905.73
2019-01-21T05:59:06.275Z,-908.18
2019-01-21T06:00:06.343Z,-902.42
2019-01-21T06:01:06.517Z,-905.21
2019-01-21T06:02:06.700Z,-906.85
2019-01-21T06:03:06.837Z,-901.99
2019-01-21T06:04:07.020Z,-913.99
2019-01-21T06:05:07.166Z,-908.40
2019-01-21T06:06:07.342Z,-903.32
2019-01-21T06:07:07.657Z,-903.02
2019-01-21T06:08:07.668Z,-908.39
2019-01-21T06:09:07.835Z,-900.39
2019-01-21T06:10:07.982Z,-965.33
2019-01-21T06:11:08.126Z,-959.04
2019-01-21T06:12:08.352Z,-962.57
2019-01-21T06:13:08.542Z,-964.17
2019-01-21T06:14:08.658Z,-958.62
2019-01-21T06:15:08.881Z,-957.45
2019-01-21T06:16:08.936Z,-959.37
2019-01-21T06:17:09.162Z,-958.37
2019-01-21T06:18:09.306Z,-955.32
2019-01-21T06:19:09.589Z,-953.18
2019-01-21T06:20:09.622Z,-899.14
2019-01-21T06:21:09.776Z,-962.08
2019-01-21T06:22:10.001Z,-958.92
2019-01-21T06:23:10.144Z,-957.60
2019-01-21T06:24:10.264Z,-962.57
2019-01-21T06:25:10.417Z,-954.25
2019-01-21T06:26:10.578Z,-954.18
2019-01-21T06:27:10.781Z,-956.06
2019-01-21T06:28:10.880Z,-957.97
2019-01-21T06:29:11.058Z,-952.83
2019-01-21T06:30:11.217Z,-957.46
2019-01-21T06:31:11.427Z,-956.82
2019-01-21T06:32:11.602Z,-955.64
2019-01-21T06:33:11.714Z,-955.93
2019-01-21T06:34:11.871Z,-953.15
2019-01-21T06:35:12.037Z,-943.87
2019-01-21T06:36:12.205Z,-832.93
2019-01-21T06:37:12.389Z,-929.06
2019-01-21T06:38:12.523Z,-935.27
2019-01-21T06:39:12.770Z,-949.39
2019-01-21T06:40:12.952Z,-948.85
2019-01-21T06:41:13.004Z,-946.08
2019-01-21T06:42:13.181Z,-954.70
2019-01-21T06:43:13.326Z,-953.24
2019-01-21T06:44:13.506Z,-956.30
2019-01-21T06:45:13.652Z,-954.25
2019-01-21T06:46:13.812Z,-955.04
2019-01-21T06:47:13.982Z,-960.77
2019-01-21T06:48:14.287Z,-957.50
2019-01-21T06:49:14.316Z,-900.01
2019-01-21T06:50:14.464Z,-950.23
2019-01-21T06:51:14.869Z,-900.57
2019-01-21T06:52:14.819Z,-902.43
2019-01-21T06:53:14.973Z,-894.76
2019-01-21T06:54:15.125Z,-954.87
2019-01-21T06:55:15.288Z,-961.55
2019-01-21T06:56:15.495Z,-965.99
2019-01-21T06:57:15.600Z,-962.63
2019-01-21T06:58:15.788Z,-958.41
2019-01-21T06:59:15.916Z,-951.37
2019-01-21T07:00:16.100Z,-954.86
2019-01-21T07:01:16.261Z,-955.14
2019-01-21T07:02:16.431Z,-954.66
2019-01-21T07:03:16.615Z,-949.38
2019-01-21T07:04:16.811Z,-953.91
2019-01-21T07:05:16.925Z,-889.45
2019-01-21T07:06:17.069Z,-935.07
2019-01-21T07:07:17.233Z,-938.33
2019-01-21T07:08:17.383Z,-936.28
2019-01-21T07:09:17.564Z,-939.67
2019-01-21T07:10:17.759Z,-940.68
2019-01-21T07:11:17.887Z,-946.80
2019-01-21T07:12:18.112Z,-949.93
2019-01-21T07:13:18.245Z,-945.28
2019-01-21T07:14:18.371Z,-934.08
2019-01-21T07:15:18.576Z,-928.85
2019-01-21T07:16:18.693Z,-936.51
2019-01-21T07:17:18.873Z,-935.00
2019-01-21T07:18:19.657Z,-942.13
2019-01-21T07:19:19.164Z,-943.15
2019-01-21T07:20:19.386Z,-950.81
2019-01-21T07:21:19.634Z,-899.19
2019-01-21T07:22:19.679Z,-949.66
2019-01-21T07:23:19.808Z,-950.17
2019-01-21T07:24:19.979Z,-940.95
2019-01-21T07:25:20.197Z,-943.57
2019-01-21T07:26:20.317Z,-944.75
2019-01-21T07:27:20.502Z,-947.67
2019-01-21T07:28:20.652Z,-956.59
2019-01-21T07:29:20.878Z,-952.98
2019-01-21T07:30:20.991Z,-951.72
2019-01-21T07:31:21.118Z,-950.65
2019-01-21T07:32:21.303Z,-957.82
2019-01-21T07:33:21.441Z,-957.75
2019-01-21T07:34:21.594Z,-956.61
2019-01-21T07:35:21.796Z,-945.92
2019-01-21T07:36:21.945Z,-951.14
2019-01-21T07:37:22.188Z,-901.74
2019-01-21T07:38:22.250Z,-952.83
2019-01-21T07:39:22.420Z,-953.10
2019-01-21T07:40:22.586Z,-956.64
2019-01-21T07:41:22.744Z,-958.10
2019-01-21T07:42:22.936Z,-954.20
2019-01-21T07:43:23.079Z,-953.63
2019-01-21T07:44:23.241Z,-952.27
2019-01-21T07:45:23.495Z,-955.49
2019-01-21T07:46:23.541Z,-957.15
2019-01-21T07:47:23.750Z,-907.09
2019-01-21T07:48:23.895Z,-949.40
2019-01-21T07:49:24.058Z,-950.79
2019-01-21T07:50:24.794Z,-948.85
2019-01-21T07:51:24.378Z,-953.03
2019-01-21T07:52:25.322Z,-952.04
2019-01-21T07:53:25.318Z,-951.99
2019-01-21T07:54:25.013Z,-948.67
2019-01-21T07:55:25.122Z,-908.69
2019-01-21T07:56:25.398Z,-937.10
2019-01-21T07:57:25.352Z,-950.25
2019-01-21T07:58:25.531Z,-951.07
2019-01-21T07:59:25.688Z,-957.69
2019-01-21T08:00:25.894Z,-958.78
2019-01-21T08:01:26.025Z,-952.76
2019-01-21T08:02:26.254Z,-960.67
2019-01-21T08:03:26.356Z,-955.54
2019-01-21T08:04:26.513Z,-955.17
2019-01-21T08:05:26.712Z,-958.52
2019-01-21T08:06:26.853Z,-961.90
2019-01-21T08:07:26.986Z,-955.89
2019-01-21T08:08:27.164Z,-957.67
2019-01-21T08:09:27.334Z,-962.82
2019-01-21T08:10:27.611Z,-955.14
2019-01-21T08:11:27.664Z,-957.95
2019-01-21T08:12:27.815Z,-961.19
2019-01-21T08:13:27.977Z,-961.90
2019-01-21T08:14:28.138Z,-962.04
2019-01-21T08:15:28.332Z,-957.98
2019-01-21T08:16:28.506Z,-944.93
2019-01-21T08:17:28.638Z,-952.48
2019-01-21T08:18:28.853Z,-956.71
2019-01-21T08:19:28.928Z,-957.53
2019-01-21T08:20:29.128Z,-957.01
2019-01-21T08:21:29.284Z,-961.50
2019-01-21T08:22:29.430Z,-960.27
2019-01-21T08:23:30.352Z,-957.56
2019-01-21T08:24:29.772Z,-957.09
2019-01-21T08:25:29.926Z,-953.81
2019-01-21T08:26:30.135Z,-955.53
2019-01-21T08:27:30.344Z,-958.04
2019-01-21T08:28:30.477Z,-955.26
2019-01-21T08:29:30.816Z,-957.55
2019-01-21T08:30:30.764Z,-962.19
2019-01-21T08:31:30.899Z,-960.85
2019-01-21T08:32:31.099Z,-958.96
2019-01-21T08:33:31.251Z,-956.82
2019-01-21T08:34:31.403Z,-933.30
2019-01-21T08:35:31.655Z,-952.89
2019-01-21T08:36:31.721Z,-954.01
2019-01-21T08:37:31.898Z,-958.22
2019-01-21T08:38:32.073Z,-958.33
2019-01-21T08:39:32.222Z,-964.25
2019-01-21T08:40:32.392Z,-963.97
2019-01-21T08:41:32.545Z,-965.66
2019-01-21T08:42:32.698Z,-966.41
2019-01-21T08:43:33.022Z,-966.14
2019-01-21T08:44:33.020Z,-962.93
2019-01-21T08:45:33.202Z,-952.20
2019-01-21T08:46:33.360Z,-963.37
2019-01-21T08:47:33.513Z,-967.99
2019-01-21T08:48:33.693Z,-965.55
2019-01-21T08:49:33.829Z,-957.20
2019-01-21T08:50:34.017Z,-958.35
2019-01-21T08:51:35.622Z,-961.20
2019-01-21T08:52:34.286Z,-969.77
2019-01-21T08:53:34.488Z,-963.69
2019-01-21T08:54:34.631Z,-937.95
2019-01-21T08:55:34.829Z,-963.07
2019-01-21T08:56:34.977Z,-965.78
2019-01-21T08:57:35.115Z,-963.50
2019-01-21T08:58:35.275Z,-970.66
2019-01-21T08:59:35.513Z,-965.26
2019-01-21T09:00:35.612Z,-968.88
2019-01-21T09:01:35.771Z,-968.51
2019-01-21T09:02:35.926Z,-966.50
2019-01-21T09:03:36.140Z,-974.30
2019-01-21T09:04:36.233Z,-950.16
2019-01-21T09:05:36.412Z,-949.70
2019-01-21T09:06:36.572Z,-963.18
2019-01-21T09:07:36.761Z,-962.48
2019-01-21T09:08:37.694Z,-961.61
2019-01-21T09:09:37.043Z,-966.64
2019-01-21T09:10:37.296Z,-971.00
2019-01-21T09:11:37.433Z,-971.25
2019-01-21T09:12:37.553Z,-973.86
2019-01-21T09:13:37.755Z,-965.58
2019-01-21T09:14:37.885Z,-966.74
2019-01-21T09:15:38.033Z,-967.98
2019-01-21T09:16:38.343Z,-969.04
2019-01-21T09:17:38.360Z,-964.24
2019-01-21T09:18:38.547Z,-972.57
2019-01-21T09:19:38.676Z,-974.17
2019-01-21T09:20:38.849Z,-967.71
2019-01-21T09:21:39.079Z,-962.01
2019-01-21T09:22:39.186Z,-965.37
2019-01-21T09:23:39.366Z,-970.05
2019-01-21T09:24:39.616Z,-965.98
2019-01-21T09:25:39.642Z,-967.31
2019-01-21T09:26:39.862Z,-963.43
2019-01-21T09:27:40.010Z,-965.42
2019-01-21T09:28:40.164Z,-965.48
2019-01-21T09:29:40.308Z,-960.72
2019-01-21T09:30:40.485Z,-962.30
2019-01-21T09:31:40.638Z,-963.96
2019-01-21T09:32:40.876Z,-959.81
2019-01-21T09:33:40.974Z,-962.10
2019-01-21T09:34:41.125Z,-961.22
2019-01-21T09:35:41.287Z,-947.48
2019-01-21T09:36:41.461Z,-946.31
2019-01-21T09:37:41.614Z,-960.46
2019-01-21T09:38:41.792Z,-961.47
2019-01-21T09:39:41.955Z,-967.48
2019-01-21T09:40:42.147Z,-965.27
2019-01-21T09:41:43.506Z,-961.25
2019-01-21T09:42:42.448Z,-963.81
2019-01-21T09:43:42.623Z,-968.51
2019-01-21T09:44:42.779Z,-964.75
2019-01-21T09:45:42.940Z,-958.04
2019-01-21T09:46:43.121Z,-962.49
2019-01-21T09:47:43.284Z,-969.00
2019-01-21T09:48:43.453Z,-965.43
2019-01-21T09:49:43.971Z,-966.49
2019-01-21T09:50:43.747Z,-964.75
2019-01-21T09:51:43.929Z,-914.19
2019-01-21T09:52:44.097Z,-969.92
2019-01-21T09:53:44.237Z,-915.12
2019-01-21T09:54:44.378Z,-908.57
2019-01-21T09:55:44.918Z,-904.29
2019-01-21T09:56:44.736Z,-963.70
2019-01-21T09:57:45.035Z,-958.77
2019-01-21T09:58:45.052Z,-910.89
2019-01-21T09:59:45.222Z,-909.55
2019-01-21T10:00:45.372Z,-965.13
2019-01-21T10:01:45.557Z,-963.57
2019-01-21T10:02:45.713Z,-961.53
2019-01-21T10:03:45.879Z,-965.54
2019-01-21T10:04:46.001Z,-962.79
2019-01-21T10:05:46.265Z,-962.29
2019-01-21T10:06:46.361Z,-959.83
2019-01-21T10:07:46.761Z,-962.05
2019-01-21T10:08:46.668Z,-963.82
2019-01-21T10:09:46.830Z,-972.83
2019-01-21T10:10:46.975Z,-975.55
2019-01-21T10:11:47.154Z,-976.52
2019-01-21T10:12:47.341Z,-981.30
2019-01-21T10:13:47.510Z,-977.66
2019-01-21T10:14:47.629Z,-980.14
2019-01-21T10:15:47.796Z,-980.95
2019-01-21T10:16:50.822Z,-981.84
2019-01-21T10:17:48.122Z,-975.28
2019-01-21T10:18:48.293Z,-970.51
2019-01-21T10:19:50.716Z,-977.05
2019-01-21T10:20:49.794Z,-974.89
2019-01-21T10:21:48.839Z,-974.99
2019-01-21T10:22:48.997Z,-967.81
2019-01-21T10:23:49.109Z,-968.84
2019-01-21T10:24:49.285Z,-972.47
2019-01-21T10:25:49.447Z,-971.30
2019-01-21T10:26:49.660Z,-965.63
2019-01-21T10:27:49.770Z,-966.24
2019-01-21T10:28:49.917Z,-963.91
2019-01-21T10:29:50.124Z,-962.91
2019-01-21T10:30:50.427Z,-964.82
2019-01-21T10:31:50.490Z,-959.07
2019-01-21T10:32:50.598Z,-959.75
2019-01-21T10:33:50.764Z,-958.15
2019-01-21T10:34:50.951Z,-959.45
2019-01-21T10:35:51.093Z,-936.33
2019-01-21T10:36:51.301Z,-956.22
2019-01-21T10:37:52.836Z,-962.13
2019-01-21T10:38:51.661Z,-961.92
2019-01-21T10:39:51.757Z,-965.19
2019-01-21T10:40:51.903Z,-971.39
2019-01-21T10:41:52.082Z,-968.45
2019-01-21T10:42:52.242Z,-974.19
2019-01-21T10:43:52.386Z,-971.80
2019-01-21T10:44:52.548Z,-975.95
2019-01-21T10:45:52.711Z,-970.27
2019-01-21T10:46:52.965Z,-975.11
2019-01-21T10:47:53.055Z,-973.92
2019-01-21T10:48:53.191Z,-973.27
2019-01-21T10:49:57.264Z,-978.42
2019-01-21T10:50:53.506Z,-972.18
2019-01-21T10:51:53.702Z,-977.12
2019-01-21T10:52:53.863Z,-962.29
2019-01-21T10:53:54.004Z,-972.51
2019-01-21T10:54:54.219Z,-954.34
2019-01-21T10:55:54.292Z,-966.85
2019-01-21T10:56:54.486Z,-915.84
2019-01-21T10:57:54.669Z,-970.34
2019-01-21T10:58:54.807Z,-964.90
2019-01-21T10:59:54.983Z,-967.42
2019-01-21T11:00:56.544Z,-975.34
2019-01-21T11:01:55.309Z,-972.53
2019-01-21T11:02:55.498Z,-967.48
2019-01-21T11:03:55.710Z,-969.91
2019-01-21T11:04:55.792Z,-957.88
2019-01-21T11:05:55.938Z,-962.13
2019-01-21T11:06:56.120Z,-963.12
2019-01-21T11:07:56.272Z,-969.73
2019-01-21T11:08:56.424Z,-967.34
2019-01-21T11:09:56.599Z,-964.44
2019-01-21T11:10:56.749Z,-967.98
2019-01-21T11:11:57.117Z,-958.92
2019-01-21T11:12:57.075Z,-960.42
2019-01-21T11:13:57.227Z,-964.67
2019-01-21T11:14:57.412Z,-948.06
2019-01-21T11:15:57.564Z,-955.03
2019-01-21T11:16:57.742Z,-963.07
2019-01-21T11:17:57.915Z,-969.11
2019-01-21T11:18:58.060Z,-973.77
2019-01-21T11:20:03.777Z,-969.32
2019-01-21T11:20:59.355Z,-966.58
2019-01-21T11:21:58.537Z,-954.59
2019-01-21T11:22:58.700Z,-908.11
2019-01-21T11:23:58.855Z,-964.07
2019-01-21T11:24:59.038Z,-965.65
2019-01-21T11:25:59.193Z,-967.29
2019-01-21T11:26:59.350Z,-969.98
2019-01-21T11:27:59.542Z,-970.40
2019-01-21T11:28:59.682Z,-922.16
2019-01-21T11:29:59.823Z,-974.50
2019-01-21T11:30:59.980Z,-969.19
2019-01-21T11:32:00.156Z,-973.60
2019-01-21T11:33:00.335Z,-977.55
2019-01-21T11:34:01.395Z,-966.71
2019-01-21T11:35:00.681Z,-910.69
2019-01-21T11:36:00.856Z,-962.55
2019-01-21T11:37:01.037Z,-965.06
2019-01-21T11:38:01.162Z,-969.17
2019-01-21T11:39:01.374Z,-966.93
2019-01-21T11:40:01.492Z,-963.10
2019-01-21T11:41:01.607Z,-971.87
2019-01-21T11:42:01.787Z,-968.54
2019-01-21T11:43:01.986Z,-970.03
2019-01-21T11:44:02.171Z,-972.92
2019-01-21T11:45:02.660Z,-925.56
2019-01-21T11:46:02.438Z,-975.64
2019-01-21T11:47:02.617Z,-920.67
2019-01-21T11:48:02.814Z,-969.88
2019-01-21T11:49:02.981Z,-972.24
2019-01-21T11:50:03.126Z,-979.49
2019-01-21T11:51:03.840Z,-923.65
2019-01-21T11:52:03.412Z,-969.89
2019-01-21T11:53:03.732Z,-967.98
2019-01-21T11:54:03.771Z,-976.76
2019-01-21T11:55:03.932Z,-967.20
2019-01-21T11:56:04.077Z,-960.00
2019-01-21T11:57:04.225Z,-972.27
2019-01-21T11:58:04.417Z,-970.06
2019-01-21T11:59:04.591Z,-913.63
2019-01-21T12:00:04.765Z,-971.30
2019-01-21T12:01:04.926Z,-961.93
2019-01-21T12:02:05.045Z,-971.72
2019-01-21T12:03:05.215Z,-972.25
2019-01-21T12:04:05.374Z,-965.86
2019-01-21T12:05:05.568Z,-971.43
2019-01-21T12:06:05.699Z,-964.28
2019-01-21T12:07:05.862Z,-968.54